sensor_id;sensor_type;location;lat;lon;timestamp;temperature;humidity
17988;DHT22;9119;50.932;5.342;2022-12-10T00:01:30;1.00;99.90
17988;DHT22;9119;50.932;5.342;2022-12-10T00:03:56;1.00;99.90
17988;DHT22;9119;50.932;5.342;2022-12-10T00:06:27;1.20;99.90
17988;DHT22;9119;50.932;5.342;2022-12-10T00:08:53;1.10;99.90
17988;DHT22;9119;50.932;5.342;2022-12-10T00:11:21;1.10;99.90
17988;DHT22;9119;50.932;5.342;2022-12-10T00:13:47;1.10;99.90
17988;DHT22;9119;50.932;5.342;2022-12-10T00:16:15;1.10;99.90
17988;DHT22;9119;50.932;5.342;2022-12-10T00:18:41;1.20;99.90
17988;DHT22;9119;50.932;5.342;2022-12-10T00:21:10;1.20;99.90
17988;DHT22;9119;50.932;5.342;2022-12-10T00:23:37;1.00;99.90
17988;DHT22;9119;50.932;5.342;2022-12-10T00:26:11;1.00;99.90
17988;DHT22;9119;50.932;5.342;2022-12-10T00:28:38;1.00;99.90
17988;DHT22;9119;50.932;5.342;2022-12-10T00:31:12;1.10;99.90
17988;DHT22;9119;50.932;5.342;2022-12-10T00:33:38;1.10;99.90
17988;DHT22;9119;50.932;5.342;2022-12-10T00:36:09;1.10;99.90
17988;DHT22;9119;50.932;5.342;2022-12-10T00:38:35;1.10;99.90
17988;DHT22;9119;50.932;5.342;2022-12-10T00:41:02;1.20;99.90
17988;DHT22;9119;50.932;5.342;2022-12-10T00:43:28;1.00;99.90
17988;DHT22;9119;50.932;5.342;2022-12-10T00:45:54;1.00;99.90
17988;DHT22;9119;50.932;5.342;2022-12-10T00:48:20;1.00;99.90
17988;DHT22;9119;50.932;5.342;2022-12-10T00:51:06;1.00;99.90
17988;DHT22;9119;50.932;5.342;2022-12-10T00:53:33;1.20;99.90
17988;DHT22;9119;50.932;5.342;2022-12-10T00:55:59;1.20;99.90
17988;DHT22;9119;50.932;5.342;2022-12-10T00:58:30;1.20;99.90
17988;DHT22;9119;50.932;5.342;2022-12-10T01:03:54;1.10;99.90
17988;DHT22;9119;50.932;5.342;2022-12-10T01:08:50;1.10;99.90
17988;DHT22;9119;50.932;5.342;2022-12-10T01:11:19;1.20;99.90
17988;DHT22;9119;50.932;5.342;2022-12-10T01:13:47;1.50;99.90
17988;DHT22;9119;50.932;5.342;2022-12-10T01:16:15;1.60;99.90
17988;DHT22;9119;50.932;5.342;2022-12-10T01:18:42;1.50;99.90
17988;DHT22;9119;50.932;5.342;2022-12-10T01:21:11;1.60;99.90
17988;DHT22;9119;50.932;5.342;2022-12-10T01:23:39;1.30;99.90
17988;DHT22;9119;50.932;5.342;2022-12-10T01:26:10;1.20;99.90
17988;DHT22;9119;50.932;5.342;2022-12-10T01:28:38;1.20;99.90
17988;DHT22;9119;50.932;5.342;2022-12-10T01:31:07;1.00;99.90
17988;DHT22;9119;50.932;5.342;2022-12-10T01:33:34;1.10;99.90
17988;DHT22;9119;50.932;5.342;2022-12-10T01:36:05;1.50;99.90
17988;DHT22;9119;50.932;5.342;2022-12-10T01:38:31;1.10;99.90
17988;DHT22;9119;50.932;5.342;2022-12-10T01:40:58;1.00;99.90
17988;DHT22;9119;50.932;5.342;2022-12-10T01:43:24;0.90;99.90
17988;DHT22;9119;50.932;5.342;2022-12-10T01:45:49;0.90;99.90
17988;DHT22;9119;50.932;5.342;2022-12-10T01:48:15;1.10;99.90
17988;DHT22;9119;50.932;5.342;2022-12-10T01:50:41;1.20;99.90
17988;DHT22;9119;50.932;5.342;2022-12-10T01:53:07;1.00;99.90
17988;DHT22;9119;50.932;5.342;2022-12-10T01:55:49;1.00;99.90
17988;DHT22;9119;50.932;5.342;2022-12-10T01:58:17;1.20;99.90
17988;DHT22;9119;50.932;5.342;2022-12-10T02:01:05;1.10;99.90
17988;DHT22;9119;50.932;5.342;2022-12-10T02:04:11;1.20;99.90
17988;DHT22;9119;50.932;5.342;2022-12-10T02:11:52;1.10;99.90
17988;DHT22;9119;50.932;5.342;2022-12-10T02:14:28;1.20;99.90
17988;DHT22;9119;50.932;5.342;2022-12-10T02:17:14;1.30;99.90
17988;DHT22;9119;50.932;5.342;2022-12-10T02:20:04;1.50;99.90
17988;DHT22;9119;50.932;5.342;2022-12-10T02:22:36;1.20;99.90
17988;DHT22;9119;50.932;5.342;2022-12-10T02:25:04;1.20;99.90
17988;DHT22;9119;50.932;5.342;2022-12-10T02:27:39;1.10;99.90
17988;DHT22;9119;50.932;5.342;2022-12-10T02:30:06;1.40;99.90
17988;DHT22;9119;50.932;5.342;2022-12-10T02:32:40;1.20;99.90
17988;DHT22;9119;50.932;5.342;2022-12-10T02:35:16;1.30;99.90
17988;DHT22;9119;50.932;5.342;2022-12-10T02:37:57;1.50;99.90
17988;DHT22;9119;50.932;5.342;2022-12-10T02:40:28;1.40;99.90
17988;DHT22;9119;50.932;5.342;2022-12-10T02:42:56;1.40;99.90
17988;DHT22;9119;50.932;5.342;2022-12-10T02:45:24;1.40;99.90
17988;DHT22;9119;50.932;5.342;2022-12-10T02:47:51;1.30;99.90
17988;DHT22;9119;50.932;5.342;2022-12-10T02:50:19;1.30;99.90
17988;DHT22;9119;50.932;5.342;2022-12-10T02:52:46;1.40;99.90
17988;DHT22;9119;50.932;5.342;2022-12-10T02:55:13;1.10;99.90
17988;DHT22;9119;50.932;5.342;2022-12-10T03:00:32;1.30;99.90
17988;DHT22;9119;50.932;5.342;2022-12-10T03:03:37;1.50;99.90
17988;DHT22;9119;50.932;5.342;2022-12-10T03:06:09;1.30;99.90
17988;DHT22;9119;50.932;5.342;2022-12-10T03:08:49;1.10;99.90
17988;DHT22;9119;50.932;5.342;2022-12-10T03:11:19;0.90;99.90
17988;DHT22;9119;50.932;5.342;2022-12-10T03:14:05;0.90;99.90
17988;DHT22;9119;50.932;5.342;2022-12-10T03:16:49;1.00;99.90
17988;DHT22;9119;50.932;5.342;2022-12-10T03:19:20;1.50;99.90
17988;DHT22;9119;50.932;5.342;2022-12-10T03:21:48;1.30;99.90
17988;DHT22;9119;50.932;5.342;2022-12-10T03:24:16;1.10;99.90
17988;DHT22;9119;50.932;5.342;2022-12-10T03:26:44;1.30;99.90
17988;DHT22;9119;50.932;5.342;2022-12-10T03:29:17;1.30;99.90
17988;DHT22;9119;50.932;5.342;2022-12-10T03:31:44;1.30;99.90
17988;DHT22;9119;50.932;5.342;2022-12-10T03:34:11;1.00;99.90
17988;DHT22;9119;50.932;5.342;2022-12-10T03:36:38;0.80;99.90
17988;DHT22;9119;50.932;5.342;2022-12-10T03:39:05;0.90;99.90
17988;DHT22;9119;50.932;5.342;2022-12-10T03:41:31;0.90;99.90
17988;DHT22;9119;50.932;5.342;2022-12-10T03:43:58;0.90;99.90
17988;DHT22;9119;50.932;5.342;2022-12-10T03:46:26;0.90;99.90
17988;DHT22;9119;50.932;5.342;2022-12-10T03:48:53;1.20;99.90
17988;DHT22;9119;50.932;5.342;2022-12-10T03:51:19;0.80;99.90
17988;DHT22;9119;50.932;5.342;2022-12-10T03:53:44;0.80;99.90
17988;DHT22;9119;50.932;5.342;2022-12-10T03:56:10;0.80;99.90
17988;DHT22;9119;50.932;5.342;2022-12-10T03:58:36;0.80;99.90
17988;DHT22;9119;50.932;5.342;2022-12-10T04:01:03;0.80;99.90
17988;DHT22;9119;50.932;5.342;2022-12-10T04:03:29;0.70;99.90
17988;DHT22;9119;50.932;5.342;2022-12-10T04:06:01;0.60;99.90
17988;DHT22;9119;50.932;5.342;2022-12-10T04:08:26;0.50;99.90
17988;DHT22;9119;50.932;5.342;2022-12-10T04:10:52;0.60;99.90
17988;DHT22;9119;50.932;5.342;2022-12-10T04:13:18;0.60;99.90
17988;DHT22;9119;50.932;5.342;2022-12-10T04:16:01;0.60;99.90
17988;DHT22;9119;50.932;5.342;2022-12-10T04:18:45;0.50;99.90
17988;DHT22;9119;50.932;5.342;2022-12-10T04:21:11;0.50;99.90
17988;DHT22;9119;50.932;5.342;2022-12-10T04:23:55;0.70;99.90
17988;DHT22;9119;50.932;5.342;2022-12-10T04:26:39;0.60;99.90
17988;DHT22;9119;50.932;5.342;2022-12-10T04:29:21;0.60;99.90
17988;DHT22;9119;50.932;5.342;2022-12-10T04:31:47;0.70;99.90
17988;DHT22;9119;50.932;5.342;2022-12-10T04:34:12;0.70;99.90
17988;DHT22;9119;50.932;5.342;2022-12-10T04:36:38;0.70;99.90
17988;DHT22;9119;50.932;5.342;2022-12-10T04:39:03;0.60;99.90
17988;DHT22;9119;50.932;5.342;2022-12-10T04:41:29;0.60;99.90
17988;DHT22;9119;50.932;5.342;2022-12-10T04:43:55;0.70;99.90
17988;DHT22;9119;50.932;5.342;2022-12-10T04:46:20;0.70;99.90
17988;DHT22;9119;50.932;5.342;2022-12-10T04:48:46;0.70;99.90
17988;DHT22;9119;50.932;5.342;2022-12-10T04:51:12;0.70;99.90
17988;DHT22;9119;50.932;5.342;2022-12-10T04:53:37;0.50;99.90
17988;DHT22;9119;50.932;5.342;2022-12-10T04:56:03;0.50;99.90
17988;DHT22;9119;50.932;5.342;2022-12-10T04:58:31;0.50;99.90
17988;DHT22;9119;50.932;5.342;2022-12-10T05:01:04;0.50;99.90
17988;DHT22;9119;50.932;5.342;2022-12-10T05:03:31;0.80;99.90
17988;DHT22;9119;50.932;5.342;2022-12-10T05:06:01;0.40;99.90
17988;DHT22;9119;50.932;5.342;2022-12-10T05:08:27;0.40;99.90
17988;DHT22;9119;50.932;5.342;2022-12-10T05:10:53;0.50;99.90
17988;DHT22;9119;50.932;5.342;2022-12-10T05:13:19;0.60;99.90
17988;DHT22;9119;50.932;5.342;2022-12-10T05:15:44;0.60;99.90
17988;DHT22;9119;50.932;5.342;2022-12-10T05:18:10;0.50;99.90
17988;DHT22;9119;50.932;5.342;2022-12-10T05:20:36;0.50;99.90
17988;DHT22;9119;50.932;5.342;2022-12-10T05:23:01;0.50;99.90
17988;DHT22;9119;50.932;5.342;2022-12-10T05:25:45;0.60;99.90
17988;DHT22;9119;50.932;5.342;2022-12-10T05:28:23;0.70;99.90
17988;DHT22;9119;50.932;5.342;2022-12-10T05:30:48;0.50;99.90
17988;DHT22;9119;50.932;5.342;2022-12-10T05:33:14;0.50;99.90
17988;DHT22;9119;50.932;5.342;2022-12-10T05:35:40;0.40;99.90
17988;DHT22;9119;50.932;5.342;2022-12-10T05:38:06;0.40;99.90
17988;DHT22;9119;50.932;5.342;2022-12-10T05:40:38;0.20;99.90
17988;DHT22;9119;50.932;5.342;2022-12-10T05:43:04;0.20;99.90
17988;DHT22;9119;50.932;5.342;2022-12-10T05:45:31;0.20;99.90
17988;DHT22;9119;50.932;5.342;2022-12-10T05:47:57;0.20;99.90
17988;DHT22;9119;50.932;5.342;2022-12-10T05:50:23;0.10;99.90
17988;DHT22;9119;50.932;5.342;2022-12-10T05:52:50;0.10;99.90
17988;DHT22;9119;50.932;5.342;2022-12-10T05:55:16;0.20;99.90
17988;DHT22;9119;50.932;5.342;2022-12-10T05:57:42;0.30;99.90
17988;DHT22;9119;50.932;5.342;2022-12-10T06:00:08;0.30;99.90
17988;DHT22;9119;50.932;5.342;2022-12-10T06:02:33;0.40;99.90
17988;DHT22;9119;50.932;5.342;2022-12-10T06:04:59;0.50;99.90
17988;DHT22;9119;50.932;5.342;2022-12-10T06:07:25;0.40;99.90
17988;DHT22;9119;50.932;5.342;2022-12-10T06:09:51;0.40;99.90
17988;DHT22;9119;50.932;5.342;2022-12-10T06:12:16;0.40;99.90
17988;DHT22;9119;50.932;5.342;2022-12-10T06:14:42;0.50;99.90
17988;DHT22;9119;50.932;5.342;2022-12-10T06:17:08;0.60;99.90
17988;DHT22;9119;50.932;5.342;2022-12-10T06:19:34;0.70;99.90
17988;DHT22;9119;50.932;5.342;2022-12-10T06:22:00;0.40;99.90
17988;DHT22;9119;50.932;5.342;2022-12-10T06:24:25;0.30;99.90
17988;DHT22;9119;50.932;5.342;2022-12-10T06:26:51;0.30;99.90
17988;DHT22;9119;50.932;5.342;2022-12-10T06:29:17;0.50;99.90
17988;DHT22;9119;50.932;5.342;2022-12-10T06:31:43;0.50;99.90
17988;DHT22;9119;50.932;5.342;2022-12-10T06:34:09;0.60;99.90
17988;DHT22;9119;50.932;5.342;2022-12-10T06:36:34;0.60;99.90
17988;DHT22;9119;50.932;5.342;2022-12-10T06:39:00;0.60;99.90
17988;DHT22;9119;50.932;5.342;2022-12-10T06:41:26;0.40;99.90
17988;DHT22;9119;50.932;5.342;2022-12-10T06:43:52;0.40;99.90
17988;DHT22;9119;50.932;5.342;2022-12-10T06:46:19;0.30;99.90
17988;DHT22;9119;50.932;5.342;2022-12-10T06:48:45;0.40;99.90
17988;DHT22;9119;50.932;5.342;2022-12-10T06:51:13;0.50;99.90
17988;DHT22;9119;50.932;5.342;2022-12-10T06:53:40;0.60;99.90
17988;DHT22;9119;50.932;5.342;2022-12-10T06:56:07;0.50;99.90
17988;DHT22;9119;50.932;5.342;2022-12-10T06:58:35;0.30;99.90
17988;DHT22;9119;50.932;5.342;2022-12-10T07:01:18;0.40;99.90
17988;DHT22;9119;50.932;5.342;2022-12-10T07:03:51;0.50;99.90
17988;DHT22;9119;50.932;5.342;2022-12-10T07:06:18;0.60;99.90
17988;DHT22;9119;50.932;5.342;2022-12-10T07:08:44;0.50;99.90
17988;DHT22;9119;50.932;5.342;2022-12-10T07:11:12;0.50;99.90
17988;DHT22;9119;50.932;5.342;2022-12-10T07:13:38;0.60;99.90
17988;DHT22;9119;50.932;5.342;2022-12-10T07:16:16;0.30;99.90
17988;DHT22;9119;50.932;5.342;2022-12-10T07:18:42;0.40;99.90
17988;DHT22;9119;50.932;5.342;2022-12-10T07:21:34;0.40;99.90
17988;DHT22;9119;50.932;5.342;2022-12-10T07:24:06;0.30;99.90
17988;DHT22;9119;50.932;5.342;2022-12-10T07:26:35;0.40;99.90
17988;DHT22;9119;50.932;5.342;2022-12-10T07:29:03;0.40;99.90
17988;DHT22;9119;50.932;5.342;2022-12-10T07:31:29;0.40;99.90
17988;DHT22;9119;50.932;5.342;2022-12-10T07:33:57;0.40;99.90
17988;DHT22;9119;50.932;5.342;2022-12-10T07:36:24;0.30;99.90
17988;DHT22;9119;50.932;5.342;2022-12-10T07:38:51;0.20;99.90
17988;DHT22;9119;50.932;5.342;2022-12-10T07:41:17;0.10;99.90
17988;DHT22;9119;50.932;5.342;2022-12-10T07:43:44;0.10;99.90
17988;DHT22;9119;50.932;5.342;2022-12-10T07:46:12;0.10;99.90
17988;DHT22;9119;50.932;5.342;2022-12-10T07:48:40;0.20;99.90
17988;DHT22;9119;50.932;5.342;2022-12-10T07:51:06;0.20;99.90
17988;DHT22;9119;50.932;5.342;2022-12-10T07:53:33;0.30;99.90
17988;DHT22;9119;50.932;5.342;2022-12-10T07:55:59;0.30;99.90
17988;DHT22;9119;50.932;5.342;2022-12-10T07:58:25;0.30;99.90
17988;DHT22;9119;50.932;5.342;2022-12-10T08:00:51;0.40;99.90
17988;DHT22;9119;50.932;5.342;2022-12-10T08:03:17;0.40;99.90
17988;DHT22;9119;50.932;5.342;2022-12-10T08:05:42;0.20;99.90
17988;DHT22;9119;50.932;5.342;2022-12-10T08:08:08;0.00;99.90
17988;DHT22;9119;50.932;5.342;2022-12-10T08:10:38;0.20;99.90
17988;DHT22;9119;50.932;5.342;2022-12-10T08:13:05;0.10;99.90
17988;DHT22;9119;50.932;5.342;2022-12-10T08:15:31;0.20;99.90
17988;DHT22;9119;50.932;5.342;2022-12-10T08:17:57;0.30;99.90
17988;DHT22;9119;50.932;5.342;2022-12-10T08:20:24;0.50;99.90
17988;DHT22;9119;50.932;5.342;2022-12-10T08:22:50;0.50;99.90
17988;DHT22;9119;50.932;5.342;2022-12-10T08:25:16;0.50;99.90
17988;DHT22;9119;50.932;5.342;2022-12-10T08:27:42;0.50;99.90
17988;DHT22;9119;50.932;5.342;2022-12-10T08:30:08;0.40;99.90
17988;DHT22;9119;50.932;5.342;2022-12-10T08:32:34;0.30;99.90
17988;DHT22;9119;50.932;5.342;2022-12-10T08:34:59;0.20;99.90
17988;DHT22;9119;50.932;5.342;2022-12-10T08:37:25;0.20;99.90
17988;DHT22;9119;50.932;5.342;2022-12-10T08:39:51;0.20;99.90
17988;DHT22;9119;50.932;5.342;2022-12-10T08:42:17;0.40;99.90
17988;DHT22;9119;50.932;5.342;2022-12-10T08:44:42;0.50;99.90
17988;DHT22;9119;50.932;5.342;2022-12-10T08:47:08;0.50;99.90
17988;DHT22;9119;50.932;5.342;2022-12-10T08:49:34;0.50;99.90
17988;DHT22;9119;50.932;5.342;2022-12-10T08:51:59;0.60;99.90
17988;DHT22;9119;50.932;5.342;2022-12-10T08:54:25;0.70;99.90
17988;DHT22;9119;50.932;5.342;2022-12-10T08:56:51;0.70;99.90
17988;DHT22;9119;50.932;5.342;2022-12-10T08:59:16;0.70;99.90
17988;DHT22;9119;50.932;5.342;2022-12-10T09:01:42;0.70;99.90
17988;DHT22;9119;50.932;5.342;2022-12-10T09:04:08;0.70;99.90
17988;DHT22;9119;50.932;5.342;2022-12-10T09:06:34;0.70;99.90
17988;DHT22;9119;50.932;5.342;2022-12-10T09:09:00;0.30;99.90
17988;DHT22;9119;50.932;5.342;2022-12-10T09:11:29;0.20;99.90
17988;DHT22;9119;50.932;5.342;2022-12-10T09:13:56;0.20;99.90
17988;DHT22;9119;50.932;5.342;2022-12-10T09:16:30;0.20;99.90
17988;DHT22;9119;50.932;5.342;2022-12-10T09:18:58;0.10;99.90
17988;DHT22;9119;50.932;5.342;2022-12-10T09:21:24;0.10;99.90
17988;DHT22;9119;50.932;5.342;2022-12-10T09:23:50;0.30;99.90
17988;DHT22;9119;50.932;5.342;2022-12-10T09:26:17;0.20;99.90
17988;DHT22;9119;50.932;5.342;2022-12-10T09:28:44;0.40;99.90
17988;DHT22;9119;50.932;5.342;2022-12-10T09:31:11;0.30;99.90
17988;DHT22;9119;50.932;5.342;2022-12-10T09:33:37;0.70;99.90
17988;DHT22;9119;50.932;5.342;2022-12-10T09:36:05;0.60;99.90
17988;DHT22;9119;50.932;5.342;2022-12-10T09:38:34;0.40;99.90
17988;DHT22;9119;50.932;5.342;2022-12-10T09:51:36;0.60;99.90
17988;DHT22;9119;50.932;5.342;2022-12-10T09:54:04;0.80;99.90
17988;DHT22;9119;50.932;5.342;2022-12-10T09:56:38;0.60;99.90
17988;DHT22;9119;50.932;5.342;2022-12-10T09:59:23;0.80;99.90
17988;DHT22;9119;50.932;5.342;2022-12-10T10:04:42;0.80;99.90
17988;DHT22;9119;50.932;5.342;2022-12-10T10:07:12;0.90;99.90
17988;DHT22;9119;50.932;5.342;2022-12-10T10:09:42;0.80;99.90
17988;DHT22;9119;50.932;5.342;2022-12-10T10:12:13;0.80;99.90
17988;DHT22;9119;50.932;5.342;2022-12-10T10:14:41;0.70;99.90
17988;DHT22;9119;50.932;5.342;2022-12-10T10:17:33;0.70;99.90
17988;DHT22;9119;50.932;5.342;2022-12-10T10:19:59;0.80;99.90
17988;DHT22;9119;50.932;5.342;2022-12-10T10:22:25;0.80;99.90
17988;DHT22;9119;50.932;5.342;2022-12-10T10:24:52;0.90;99.90
17988;DHT22;9119;50.932;5.342;2022-12-10T10:27:23;1.00;99.90
17988;DHT22;9119;50.932;5.342;2022-12-10T10:29:51;1.00;99.90
17988;DHT22;9119;50.932;5.342;2022-12-10T10:32:21;1.00;99.90
17988;DHT22;9119;50.932;5.342;2022-12-10T10:34:53;1.00;99.90
17988;DHT22;9119;50.932;5.342;2022-12-10T10:39:48;0.60;99.90
17988;DHT22;9119;50.932;5.342;2022-12-10T10:42:27;0.50;99.90
17988;DHT22;9119;50.932;5.342;2022-12-10T10:44:53;0.50;99.90
17988;DHT22;9119;50.932;5.342;2022-12-10T10:47:31;0.40;99.90
17988;DHT22;9119;50.932;5.342;2022-12-10T10:49:57;0.30;99.90
17988;DHT22;9119;50.932;5.342;2022-12-10T10:52:35;0.60;99.90
17988;DHT22;9119;50.932;5.342;2022-12-10T10:55:01;0.80;99.90
17988;DHT22;9119;50.932;5.342;2022-12-10T10:57:34;0.70;99.90
17988;DHT22;9119;50.932;5.342;2022-12-10T11:00:05;0.80;99.90
17988;DHT22;9119;50.932;5.342;2022-12-10T11:02:35;0.80;99.90
17988;DHT22;9119;50.932;5.342;2022-12-10T11:05:24;0.70;99.90
17988;DHT22;9119;50.932;5.342;2022-12-10T11:08:28;0.80;99.90
17988;DHT22;9119;50.932;5.342;2022-12-10T11:10:59;0.70;99.90
17988;DHT22;9119;50.932;5.342;2022-12-10T11:13:30;0.80;99.90
17988;DHT22;9119;50.932;5.342;2022-12-10T11:23:27;1.10;99.90
17988;DHT22;9119;50.932;5.342;2022-12-10T11:31:52;1.10;99.90
17988;DHT22;9119;50.932;5.342;2022-12-10T11:37:17;1.10;99.90
17988;DHT22;9119;50.932;5.342;2022-12-10T11:50:14;1.00;99.90
17988;DHT22;9119;50.932;5.342;2022-12-10T11:52:56;1.10;99.90
17988;DHT22;9119;50.932;5.342;2022-12-10T11:55:36;0.70;99.90
17988;DHT22;9119;50.932;5.342;2022-12-10T12:06:54;0.90;99.90
17988;DHT22;9119;50.932;5.342;2022-12-10T12:09:24;1.10;99.90
17988;DHT22;9119;50.932;5.342;2022-12-10T12:14:48;0.90;99.90
17988;DHT22;9119;50.932;5.342;2022-12-10T12:17:23;0.70;99.90
17988;DHT22;9119;50.932;5.342;2022-12-10T12:19:53;0.80;99.90
17988;DHT22;9119;50.932;5.342;2022-12-10T12:22:25;0.80;99.90
17988;DHT22;9119;50.932;5.342;2022-12-10T12:24:59;0.60;99.90
17988;DHT22;9119;50.932;5.342;2022-12-10T12:28:26;0.50;99.90
17988;DHT22;9119;50.932;5.342;2022-12-10T12:30:47;0.70;99.90
17988;DHT22;9119;50.932;5.342;2022-12-10T12:33:30;0.70;99.90
17988;DHT22;9119;50.932;5.342;2022-12-10T12:38:36;1.10;99.90
17988;DHT22;9119;50.932;5.342;2022-12-10T12:41:32;1.00;99.90
17988;DHT22;9119;50.932;5.342;2022-12-10T12:44:31;1.10;99.90
17988;DHT22;9119;50.932;5.342;2022-12-10T12:47:04;1.20;99.90
17988;DHT22;9119;50.932;5.342;2022-12-10T12:49:39;1.40;99.90
17988;DHT22;9119;50.932;5.342;2022-12-10T12:54:41;1.10;99.90
17988;DHT22;9119;50.932;5.342;2022-12-10T12:57:08;0.70;99.90
17988;DHT22;9119;50.932;5.342;2022-12-10T13:05:25;1.20;99.90
17988;DHT22;9119;50.932;5.342;2022-12-10T13:13:35;0.90;99.90
17988;DHT22;9119;50.932;5.342;2022-12-10T13:19:25;1.20;99.90
17988;DHT22;9119;50.932;5.342;2022-12-10T13:21:59;1.30;99.90
17988;DHT22;9119;50.932;5.342;2022-12-10T13:29:54;1.30;99.90
17988;DHT22;9119;50.932;5.342;2022-12-10T13:37:36;1.30;99.90
17988;DHT22;9119;50.932;5.342;2022-12-10T13:42:40;1.30;99.90
17988;DHT22;9119;50.932;5.342;2022-12-10T13:45:33;1.50;99.90
17988;DHT22;9119;50.932;5.342;2022-12-10T13:48:28;1.20;99.90
17988;DHT22;9119;50.932;5.342;2022-12-10T13:56:29;1.00;99.90
17988;DHT22;9119;50.932;5.342;2022-12-10T14:01:51;0.90;99.90
17988;DHT22;9119;50.932;5.342;2022-12-10T14:07:11;0.80;99.90
17988;DHT22;9119;50.932;5.342;2022-12-10T14:09:58;0.70;99.90
17988;DHT22;9119;50.932;5.342;2022-12-10T14:12:35;0.70;99.90
17988;DHT22;9119;50.932;5.342;2022-12-10T14:15:14;0.80;99.90
17988;DHT22;9119;50.932;5.342;2022-12-10T14:17:42;0.80;99.90
17988;DHT22;9119;50.932;5.342;2022-12-10T14:20:14;0.90;99.90
17988;DHT22;9119;50.932;5.342;2022-12-10T14:22:47;0.90;99.90
17988;DHT22;9119;50.932;5.342;2022-12-10T14:25:16;1.00;99.90
17988;DHT22;9119;50.932;5.342;2022-12-10T14:27:44;1.00;99.90
17988;DHT22;9119;50.932;5.342;2022-12-10T14:30:19;1.30;99.90
17988;DHT22;9119;50.932;5.342;2022-12-10T14:32:46;1.10;99.90
17988;DHT22;9119;50.932;5.342;2022-12-10T14:35:19;1.20;99.90
17988;DHT22;9119;50.932;5.342;2022-12-10T14:37:47;1.30;99.90
17988;DHT22;9119;50.932;5.342;2022-12-10T14:40:38;1.30;99.90
17988;DHT22;9119;50.932;5.342;2022-12-10T14:43:09;1.20;99.90
17988;DHT22;9119;50.932;5.342;2022-12-10T14:45:55;1.10;99.90
17988;DHT22;9119;50.932;5.342;2022-12-10T14:48:22;1.00;99.90
17988;DHT22;9119;50.932;5.342;2022-12-10T14:50:49;1.00;99.90
17988;DHT22;9119;50.932;5.342;2022-12-10T14:53:17;1.10;99.90
17988;DHT22;9119;50.932;5.342;2022-12-10T14:55:49;1.00;99.90
17988;DHT22;9119;50.932;5.342;2022-12-10T14:59:04;1.30;99.90
17988;DHT22;9119;50.932;5.342;2022-12-10T15:01:28;1.30;99.90
17988;DHT22;9119;50.932;5.342;2022-12-10T15:03:58;1.20;99.90
17988;DHT22;9119;50.932;5.342;2022-12-10T15:06:25;1.20;99.90
17988;DHT22;9119;50.932;5.342;2022-12-10T15:08:54;1.10;99.90
17988;DHT22;9119;50.932;5.342;2022-12-10T15:11:21;1.10;99.90
17988;DHT22;9119;50.932;5.342;2022-12-10T15:13:52;1.40;99.90
17988;DHT22;9119;50.932;5.342;2022-12-10T15:16:37;1.00;99.90
17988;DHT22;9119;50.932;5.342;2022-12-10T15:19:31;1.10;99.90
17988;DHT22;9119;50.932;5.342;2022-12-10T15:22:21;1.00;99.90
17988;DHT22;9119;50.932;5.342;2022-12-10T15:24:50;0.90;99.90
17988;DHT22;9119;50.932;5.342;2022-12-10T15:27:21;0.90;99.90
17988;DHT22;9119;50.932;5.342;2022-12-10T15:29:48;0.90;99.90
17988;DHT22;9119;50.932;5.342;2022-12-10T15:32:19;0.70;99.90
17988;DHT22;9119;50.932;5.342;2022-12-10T15:34:48;0.80;99.90
17988;DHT22;9119;50.932;5.342;2022-12-10T15:37:40;0.90;99.90
17988;DHT22;9119;50.932;5.342;2022-12-10T15:40:21;1.10;99.90
17988;DHT22;9119;50.932;5.342;2022-12-10T15:42:47;1.20;99.90
17988;DHT22;9119;50.932;5.342;2022-12-10T15:47:47;1.20;99.90
17988;DHT22;9119;50.932;5.342;2022-12-10T15:50:13;1.30;99.90
17988;DHT22;9119;50.932;5.342;2022-12-10T15:52:39;1.30;99.90
17988;DHT22;9119;50.932;5.342;2022-12-10T15:55:06;1.30;99.90
17988;DHT22;9119;50.932;5.342;2022-12-10T15:57:34;1.30;99.90
17988;DHT22;9119;50.932;5.342;2022-12-10T16:00:15;1.30;99.90
17988;DHT22;9119;50.932;5.342;2022-12-10T16:05:25;1.20;99.90
17988;DHT22;9119;50.932;5.342;2022-12-10T16:07:56;1.20;99.90
17988;DHT22;9119;50.932;5.342;2022-12-10T16:10:25;1.20;99.90
17988;DHT22;9119;50.932;5.342;2022-12-10T16:13:03;1.30;99.90
17988;DHT22;9119;50.932;5.342;2022-12-10T16:15:35;1.30;99.90
17988;DHT22;9119;50.932;5.342;2022-12-10T16:18:05;1.10;99.90
17988;DHT22;9119;50.932;5.342;2022-12-10T16:20:32;1.20;99.90
17988;DHT22;9119;50.932;5.342;2022-12-10T16:22:58;1.00;99.90
17988;DHT22;9119;50.932;5.342;2022-12-10T16:25:27;0.90;99.90
17988;DHT22;9119;50.932;5.342;2022-12-10T16:27:55;0.80;99.90
17988;DHT22;9119;50.932;5.342;2022-12-10T16:30:33;0.90;99.90
17988;DHT22;9119;50.932;5.342;2022-12-10T16:32:59;0.80;99.90
17988;DHT22;9119;50.932;5.342;2022-12-10T16:35:25;0.80;99.90
17988;DHT22;9119;50.932;5.342;2022-12-10T16:37:51;0.90;99.90
17988;DHT22;9119;50.932;5.342;2022-12-10T16:40:24;0.80;99.90
17988;DHT22;9119;50.932;5.342;2022-12-10T16:42:50;0.90;99.90
17988;DHT22;9119;50.932;5.342;2022-12-10T16:45:29;0.90;99.90
17988;DHT22;9119;50.932;5.342;2022-12-10T16:47:56;0.80;99.90
17988;DHT22;9119;50.932;5.342;2022-12-10T16:50:22;0.90;99.90
17988;DHT22;9119;50.932;5.342;2022-12-10T16:52:48;0.80;99.90
17988;DHT22;9119;50.932;5.342;2022-12-10T16:55:17;0.80;99.90
17988;DHT22;9119;50.932;5.342;2022-12-10T16:57:44;0.80;99.90
17988;DHT22;9119;50.932;5.342;2022-12-10T17:00:19;0.90;99.90
17988;DHT22;9119;50.932;5.342;2022-12-10T17:02:45;1.00;99.90
17988;DHT22;9119;50.932;5.342;2022-12-10T17:05:24;0.90;99.90
17988;DHT22;9119;50.932;5.342;2022-12-10T17:07:51;0.90;99.90
17988;DHT22;9119;50.932;5.342;2022-12-10T17:10:17;0.90;99.90
17988;DHT22;9119;50.932;5.342;2022-12-10T17:13:03;0.90;99.90
17988;DHT22;9119;50.932;5.342;2022-12-10T17:15:28;1.00;99.90
17988;DHT22;9119;50.932;5.342;2022-12-10T17:17:54;1.10;99.90
17988;DHT22;9119;50.932;5.342;2022-12-10T17:20:20;1.00;99.90
17988;DHT22;9119;50.932;5.342;2022-12-10T17:22:46;1.10;99.90
17988;DHT22;9119;50.932;5.342;2022-12-10T17:25:11;1.20;99.90
17988;DHT22;9119;50.932;5.342;2022-12-10T17:27:37;0.80;99.90
17988;DHT22;9119;50.932;5.342;2022-12-10T17:30:03;0.80;99.90
17988;DHT22;9119;50.932;5.342;2022-12-10T17:32:30;0.90;99.90
17988;DHT22;9119;50.932;5.342;2022-12-10T17:34:57;1.00;99.90
17988;DHT22;9119;50.932;5.342;2022-12-10T17:37:25;0.90;99.90
17988;DHT22;9119;50.932;5.342;2022-12-10T17:39:53;0.80;99.90
17988;DHT22;9119;50.932;5.342;2022-12-10T17:42:19;0.90;99.90
17988;DHT22;9119;50.932;5.342;2022-12-10T17:44:45;0.80;99.90
17988;DHT22;9119;50.932;5.342;2022-12-10T17:47:19;0.90;99.90
17988;DHT22;9119;50.932;5.342;2022-12-10T17:49:45;0.90;99.90
17988;DHT22;9119;50.932;5.342;2022-12-10T17:52:11;0.90;99.90
17988;DHT22;9119;50.932;5.342;2022-12-10T17:54:36;1.10;99.90
17988;DHT22;9119;50.932;5.342;2022-12-10T17:57:04;0.80;99.90
17988;DHT22;9119;50.932;5.342;2022-12-10T17:59:34;0.90;99.90
17988;DHT22;9119;50.932;5.342;2022-12-10T18:02:00;1.00;99.90
17988;DHT22;9119;50.932;5.342;2022-12-10T18:04:26;0.90;99.90
17988;DHT22;9119;50.932;5.342;2022-12-10T18:06:52;0.90;99.90
17988;DHT22;9119;50.932;5.342;2022-12-10T18:09:18;0.80;99.90
17988;DHT22;9119;50.932;5.342;2022-12-10T18:11:43;0.90;99.90
17988;DHT22;9119;50.932;5.342;2022-12-10T18:14:10;0.90;99.90
17988;DHT22;9119;50.932;5.342;2022-12-10T18:16:39;0.90;99.90
17988;DHT22;9119;50.932;5.342;2022-12-10T18:19:12;1.00;99.90